Details From RCSS - Sungshan
To RCFN - FENGNIN
Flight Number -
Tags generated
Created
Modified
Stats Distance 149 nm / 275 km
Max Altitude 16,400 ft / 4,999 m
Waypoints 3
Social Downloads 1
Likes 0
Share VATSIM

Download

Looking for another format? Having issues loading an existing format? Contact us
Advertisement - Login to hide

Notes

Basic altitude profile: - Ascent Rate: 2500ft/min - Ascent Speed: 250kts - Cruise Altitude: 35000ft - Cruise Speed: 420kts - Descent Rate: 1500ft/min - Descent Speed: 250kts Options: - Use NATs: yes - Use PACOTS: yes - Use low airways: yes - Use high airways: yes

Route

RCSS PILOX RCFN

ID Type Via Altitude Latitude Longitude Leg Dist Tot Dist Heading (true) Name
O RCSS APT - 0 ft / 0 m 25.06959˚ 121.55257˚ - 0 nm - Sungshan
PILOX FIX - 16,400 ft / 4,999 m 24.41500˚ 121.02472˚ 48 nm 48 nm 216° / 216° -
O RCFN APT - 0 ft / 0 m 22.75487˚ 121.10165˚ 99 nm 148 nm 178° / 178° FENGNIN

Altitude Profile

Advertisement - Login to hide

RCSS

Details ICAO RCSS (TSA)
Name Sungshan
Region Republic of China (Taiwan)
Timezone Asia/Taipei (UTC+8.0)
Stats Elevation 18 ft / 5 m (AMSL)
Location 25.069586° 121.552570°
Runways 1
Magnetic Variation 4.482° W

METAR

RCSS 181030Z 10012KT 9999 -DZ FEW006 BKN018 BKN035 14/13 Q1025 NOSIG RMK A3027

Decode

TAF

TAF RCSS 180500Z 1806/1906 10010KT 9999 FEW010 BKN022 BKN040 TEMPO 1808/1814 5000 RA FEW010 BKN015 BKN030 TEMPO 1818/1824 VRB05KT 5000 RA FEW010 BKN016 BKN030 BECMG 1904/1906 09015KT

Decode

Departure Runways

ID Width Length Bearing (true) Bearing (mag) Surface Threshold Offset Overrun Length
10 197 ft / 60 m 8,566 ft / 2,611 m 92.26° 96.74° Asphalt 0 ft / 0 m 197 ft / 60 m
28 197 ft / 60 m 8,566 ft / 2,611 m 272.27° 276.75° Asphalt 0 ft / 0 m 525 ft / 160 m

RCFN

Details ICAO RCFN (TTT)
Name FENGNIN
Region Republic of China (Taiwan)
Timezone Asia/Taipei (UTC+8.0)
Stats Elevation 143 ft / 44 m (AMSL)
Location 22.754872° 121.101650°
Runways 1
Magnetic Variation 3.904° W

METAR

RCFN 181030Z 01010KT 310V050 9999 FEW015 BKN060 OVC080 20/13 Q1022 NOSIG RMK A3019

Decode

TAF

TAF RCFN 180500Z 1806/1906 02010KT 9999 FEW015 BKN032 BECMG 1810/1812 36008KT BECMG 1902/1904 02012G25KT

Decode

Destination Runways

ID Width Length Bearing (true) Bearing (mag) Surface Threshold Offset Overrun Length
04 148 ft / 45 m 8,019 ft / 2,444 m 38.51° 42.41° Asphalt 0 ft / 0 m 750 ft / 229 m
22 148 ft / 45 m 8,019 ft / 2,444 m 218.52° 222.42° Asphalt 0 ft / 0 m 745 ft / 227 m

Popular Alternatives